createdAt,value
2017-11-14T00:01:57.060Z,10.75
2017-11-14T00:04:29.080Z,9.98
2017-11-14T00:06:59.493Z,6.87
2017-11-14T00:09:30.815Z,6.32
2017-11-14T00:12:01.388Z,7.47
2017-11-14T00:17:05.603Z,9.05
2017-11-14T00:19:35.359Z,10.85
2017-11-14T00:22:06.190Z,10.18
2017-11-14T00:24:37.731Z,8.40
2017-11-14T00:27:09.930Z,9.32
2017-11-14T00:29:40.200Z,8.45
2017-11-14T00:32:10.044Z,9.20
2017-11-14T00:34:39.930Z,9.45
2017-11-14T00:37:09.875Z,6.82
2017-11-14T00:39:39.758Z,7.47
2017-11-14T00:44:45.696Z,7.85
2017-11-14T00:47:16.118Z,8.02
2017-11-14T00:49:50.169Z,7.78
2017-11-14T00:52:22.272Z,7.15
2017-11-14T00:54:52.680Z,8.52
2017-11-14T01:02:42.845Z,9.57
2017-11-14T01:05:18.180Z,10.18
2017-11-14T01:07:53.118Z,12.70
2017-11-14T01:15:30.892Z,7.87
2017-11-14T01:18:02.592Z,7.05
2017-11-14T01:20:36.296Z,7.97
2017-11-14T01:23:06.193Z,6.93
2017-11-14T01:25:36.142Z,5.32
2017-11-14T01:28:08.320Z,8.80
2017-11-14T01:30:41.603Z,9.23
2017-11-14T01:33:12.247Z,6.37
2017-11-14T01:35:42.280Z,4.95
2017-11-14T01:38:12.360Z,8.55
2017-11-14T01:40:42.348Z,8.63
2017-11-14T01:43:12.281Z,6.10
2017-11-14T01:45:44.287Z,7.90
2017-11-14T01:48:15.044Z,8.95
2017-11-14T01:50:45.853Z,7.75
2017-11-14T01:53:16.209Z,6.15
2017-11-14T01:55:46.186Z,10.63
2017-11-14T01:58:16.333Z,6.35
2017-11-14T02:00:52.185Z,8.55
2017-11-14T02:03:25.497Z,5.60
2017-11-14T02:05:55.340Z,10.07
2017-11-14T02:08:28.730Z,7.10
2017-11-14T02:10:59.734Z,8.98
2017-11-14T02:13:33.206Z,6.55
2017-11-14T02:16:04.087Z,9.25
2017-11-14T02:18:37.149Z,8.90
2017-11-14T02:23:41.437Z,6.78
2017-11-14T02:26:11.334Z,6.35
2017-11-14T02:31:15.316Z,6.75
2017-11-14T02:38:54.015Z,11.27
2017-11-14T02:51:40.640Z,10.52
2017-11-14T03:07:06.670Z,9.23
2017-11-14T03:12:15.224Z,7.70
2017-11-14T03:25:09.762Z,9.27
2017-11-14T03:48:20.760Z,16.02
2017-11-14T04:14:23.765Z,19.50
2017-11-14T04:19:29.163Z,15.32
2017-11-14T04:22:02.460Z,15.50
2017-11-14T04:24:34.260Z,16.40
2017-11-14T04:32:16.597Z,11.43
2017-11-14T04:34:47.978Z,12.65
2017-11-14T04:37:18.573Z,11.40
2017-11-14T04:39:48.834Z,20.90
2017-11-14T04:42:18.721Z,14.38
2017-11-14T04:44:50.307Z,11.27
2017-11-14T04:47:20.302Z,14.75
2017-11-14T04:49:50.313Z,14.18
2017-11-14T04:52:21.899Z,12.60
2017-11-14T04:57:25.909Z,13.30
2017-11-14T05:02:31.106Z,15.02
2017-11-14T05:05:02.647Z,14.10
2017-11-14T05:07:37.348Z,13.60
2017-11-14T05:10:08.822Z,10.68
2017-11-14T05:12:39.255Z,13.82
2017-11-14T05:15:10.626Z,12.37
2017-11-14T05:22:51.656Z,13.43
2017-11-14T05:25:22.371Z,10.57
2017-11-14T05:43:54.200Z,12.60
2017-11-14T05:56:58.663Z,13.05
2017-11-14T05:59:28.494Z,14.25
2017-11-14T06:02:02.221Z,13.50
2017-11-14T06:04:31.846Z,12.52
2017-11-14T06:07:01.665Z,12.43
2017-11-14T06:09:35.617Z,13.13
2017-11-14T06:12:05.405Z,14.87
2017-11-14T06:17:24.341Z,16.65
2017-11-14T06:19:54.713Z,13.65
2017-11-14T06:22:24.690Z,14.25
2017-11-14T06:24:54.550Z,20.83
2017-11-14T06:27:42.959Z,16.08
2017-11-14T06:30:15.247Z,12.80
2017-11-14T06:32:45.538Z,12.07
2017-11-14T06:35:18.590Z,15.32
2017-11-14T06:37:48.680Z,14.57
2017-11-14T06:40:19.175Z,14.40
2017-11-14T06:42:49.186Z,14.15
2017-11-14T06:45:19.448Z,13.38
2017-11-14T06:47:49.455Z,8.35
2017-11-14T06:50:19.314Z,15.82
2017-11-14T06:52:49.324Z,9.85
2017-11-14T06:55:19.626Z,6.43
2017-11-14T06:57:49.551Z,6.97
2017-11-14T07:00:19.569Z,10.65
2017-11-14T07:02:49.546Z,10.48
2017-11-14T07:05:20.504Z,14.87
2017-11-14T07:07:50.612Z,14.50
2017-11-14T07:10:20.617Z,15.05
2017-11-14T07:12:50.443Z,16.50
2017-11-14T07:15:20.348Z,12.68
2017-11-14T07:17:49.908Z,14.45
2017-11-14T07:20:19.862Z,14.63
2017-11-14T07:22:50.108Z,15.80
2017-11-14T07:25:20.003Z,16.50
2017-11-14T07:27:50.837Z,16.50
2017-11-14T07:30:20.657Z,15.82
2017-11-14T07:32:50.814Z,16.55
2017-11-14T07:35:20.901Z,14.55
2017-11-14T07:37:51.075Z,15.90
2017-11-14T07:40:21.271Z,14.95
2017-11-14T07:42:51.103Z,17.52
2017-11-14T07:45:21.004Z,14.63
2017-11-14T07:47:51.795Z,10.63
2017-11-14T07:50:21.730Z,14.02
2017-11-14T07:52:51.941Z,14.80
2017-11-14T07:55:21.895Z,16.67
2017-11-14T07:57:51.799Z,11.60
2017-11-14T08:00:22.574Z,13.40
2017-11-14T08:02:53.288Z,12.52
2017-11-14T08:05:24.807Z,11.93
2017-11-14T08:07:54.701Z,11.85
2017-11-14T08:10:26.062Z,10.80
2017-11-14T08:12:56.592Z,10.77
2017-11-14T08:15:26.937Z,11.82
2017-11-14T08:17:56.957Z,11.75
2017-11-14T08:20:27.173Z,11.45
2017-11-14T08:22:57.791Z,11.63
2017-11-14T08:25:27.872Z,12.07
2017-11-14T08:27:58.758Z,19.25
2017-11-14T08:30:29.241Z,12.45
2017-11-14T08:32:59.184Z,12.93
2017-11-14T08:35:29.483Z,12.20
2017-11-14T08:37:59.475Z,15.13
2017-11-14T08:40:31.607Z,9.48
2017-11-14T08:43:02.067Z,12.90
2017-11-14T08:45:36.373Z,14.87
2017-11-14T08:48:06.575Z,10.55
2017-11-14T08:50:36.549Z,17.50
2017-11-14T08:53:06.667Z,10.52
2017-11-14T08:55:36.522Z,11.55
2017-11-14T08:58:06.450Z,10.35
2017-11-14T09:00:36.507Z,9.13
2017-11-14T09:03:06.168Z,7.65
2017-11-14T09:05:36.179Z,8.90
2017-11-14T09:08:06.631Z,9.60
2017-11-14T09:10:36.167Z,9.88
2017-11-14T09:13:06.051Z,6.97
2017-11-14T09:15:37.408Z,11.73
2017-11-14T09:18:07.679Z,6.70
2017-11-14T09:20:37.791Z,6.50
2017-11-14T09:23:07.598Z,7.77
2017-11-14T09:25:37.930Z,6.15
2017-11-14T09:28:07.232Z,5.93
2017-11-14T09:30:36.561Z,6.10
2017-11-14T09:33:06.157Z,8.38
2017-11-14T09:35:35.782Z,11.55
2017-11-14T09:38:05.793Z,6.47
2017-11-14T09:40:35.706Z,8.07
2017-11-14T09:43:05.552Z,6.75
2017-11-14T09:45:35.415Z,5.93
2017-11-14T09:48:05.055Z,9.23
2017-11-14T09:50:34.536Z,10.13
2017-11-14T09:53:03.857Z,10.60
2017-11-14T09:55:33.846Z,8.50
2017-11-14T09:58:03.415Z,6.35
2017-11-14T10:00:33.293Z,11.93
2017-11-14T10:03:02.813Z,8.15
2017-11-14T10:05:32.353Z,10.95
2017-11-14T10:08:02.033Z,13.00
2017-11-14T10:10:31.851Z,10.40
2017-11-14T10:13:01.338Z,8.18
2017-11-14T10:15:31.273Z,8.80
2017-11-14T10:18:01.288Z,12.55
2017-11-14T10:20:30.766Z,8.85
2017-11-14T10:23:00.486Z,10.47
2017-11-14T10:25:30.271Z,15.07
2017-11-14T10:28:00.560Z,10.17
2017-11-14T10:30:31.590Z,9.53
2017-11-14T10:33:01.309Z,8.67
2017-11-14T10:35:32.505Z,12.50
2017-11-14T10:38:02.534Z,10.47
2017-11-14T10:40:41.064Z,11.97
2017-11-14T10:43:14.600Z,11.47
2017-11-14T10:48:23.141Z,11.30
2017-11-14T10:51:02.585Z,11.13
2017-11-14T10:53:43.894Z,9.93
2017-11-14T10:59:00.949Z,20.73
2017-11-14T11:01:32.910Z,11.33
2017-11-14T11:04:05.595Z,11.40
2017-11-14T11:06:37.116Z,10.60
2017-11-14T11:11:43.083Z,11.07
2017-11-14T11:14:21.774Z,10.53
2017-11-14T11:19:48.392Z,12.30
2017-11-14T11:32:48.989Z,8.17
2017-11-14T11:35:37.911Z,8.20
2017-11-14T11:41:05.472Z,9.90
2017-11-14T11:43:42.332Z,8.63
2017-11-14T12:05:05.233Z,9.17
2017-11-14T12:19:27.865Z,14.13
2017-11-14T12:21:57.752Z,9.77
2017-11-14T12:24:27.359Z,8.40
2017-11-14T12:26:57.044Z,14.43
2017-11-14T12:29:26.569Z,10.10
2017-11-14T12:31:56.330Z,10.57
2017-11-14T12:34:25.840Z,11.43
2017-11-14T12:36:56.358Z,9.17
2017-11-14T12:39:25.782Z,10.40
2017-11-14T12:41:55.239Z,8.10
2017-11-14T12:44:24.713Z,12.63
2017-11-14T12:46:54.144Z,10.87
2017-11-14T12:49:24.149Z,11.67
2017-11-14T13:40:16.561Z,12.40
2017-11-14T13:42:46.340Z,11.50
2017-11-14T13:45:16.007Z,11.33
2017-11-14T13:47:45.728Z,10.37
2017-11-14T13:50:15.183Z,10.73
2017-11-14T13:52:45.071Z,14.47
2017-11-14T13:55:14.594Z,10.27
2017-11-14T13:57:44.312Z,12.30
2017-11-14T14:00:14.314Z,13.40
2017-11-14T14:02:43.897Z,13.37
2017-11-14T14:05:13.670Z,14.93
2017-11-14T14:07:43.954Z,12.10
2017-11-14T14:10:14.119Z,12.77
2017-11-14T14:12:43.907Z,12.20
2017-11-14T14:15:13.382Z,14.07
2017-11-14T14:17:42.850Z,12.10
2017-11-14T14:20:12.317Z,15.20
2017-11-14T14:22:41.896Z,16.20
2017-11-14T14:25:11.375Z,14.03
2017-11-14T14:27:40.833Z,14.00
2017-11-14T14:30:10.331Z,14.40
2017-11-14T14:32:39.883Z,14.03
2017-11-14T14:35:09.280Z,13.00
2017-11-14T14:37:43.146Z,13.00
2017-11-14T14:40:12.689Z,15.13
2017-11-14T14:42:42.144Z,12.33
2017-11-14T14:45:11.706Z,11.70
2017-11-14T14:47:41.231Z,13.50
2017-11-14T14:50:10.671Z,10.83
2017-11-14T14:52:40.405Z,15.65
2017-11-14T14:55:10.000Z,16.27
2017-11-14T14:57:39.775Z,14.15
2017-11-14T15:00:09.689Z,18.65
2017-11-14T15:02:39.445Z,17.75
2017-11-14T15:05:09.287Z,17.55
2017-11-14T15:07:39.047Z,15.90
2017-11-14T15:10:08.818Z,14.02
2017-11-14T15:12:38.411Z,12.45
2017-11-14T15:15:08.527Z,17.73
2017-11-14T15:17:39.600Z,13.38
2017-11-14T15:20:11.010Z,14.73
2017-11-14T15:22:44.676Z,15.85
2017-11-14T15:25:14.538Z,14.45
2017-11-14T15:27:44.992Z,17.80
2017-11-14T15:30:14.448Z,14.30
2017-11-14T15:32:44.416Z,16.30
2017-11-14T15:35:14.910Z,14.20
2017-11-14T15:37:44.753Z,12.37
2017-11-14T15:40:14.676Z,16.52
2017-11-14T15:42:44.782Z,16.23
2017-11-14T15:45:14.860Z,19.77
2017-11-14T15:47:44.872Z,17.00
2017-11-14T15:50:14.965Z,17.35
2017-11-14T15:52:48.749Z,15.52
2017-11-14T15:55:18.532Z,15.00
2017-11-14T15:57:48.615Z,14.55
2017-11-14T16:00:19.359Z,15.65
2017-11-14T16:02:49.144Z,18.85
2017-11-14T16:05:18.891Z,16.05
2017-11-14T16:07:48.748Z,16.20
2017-11-14T16:10:18.590Z,17.02
2017-11-14T16:12:49.254Z,20.73
2017-11-14T16:15:19.170Z,15.27
2017-11-14T16:17:49.067Z,18.33
2017-11-14T16:20:18.911Z,16.80
2017-11-14T16:22:50.266Z,17.98
2017-11-14T16:25:20.604Z,19.27
2017-11-14T16:27:50.540Z,19.10
2017-11-14T16:30:20.859Z,17.92
2017-11-14T16:32:50.880Z,16.15
2017-11-14T16:35:21.106Z,16.92
2017-11-14T16:37:51.969Z,18.25
2017-11-14T16:40:21.449Z,26.25
2017-11-14T16:42:51.261Z,18.95
2017-11-14T16:45:21.353Z,18.52
2017-11-14T16:47:51.480Z,21.40
2017-11-14T16:50:24.325Z,18.40
2017-11-14T16:52:54.279Z,15.63
2017-11-14T16:55:24.194Z,16.92
2017-11-14T16:57:54.371Z,18.58
2017-11-14T17:00:24.104Z,21.67
2017-11-14T17:02:53.835Z,21.27
2017-11-14T17:05:23.754Z,18.42
2017-11-14T17:07:53.526Z,21.35
2017-11-14T17:10:23.226Z,19.87
2017-11-14T17:12:53.349Z,18.40
2017-11-14T17:15:24.089Z,19.15
2017-11-14T17:17:54.301Z,17.67
2017-11-14T17:20:25.255Z,20.25
2017-11-14T17:22:55.521Z,20.98
2017-11-14T17:25:26.235Z,20.95
2017-11-14T17:27:56.769Z,20.88
2017-11-14T17:30:26.621Z,20.05
2017-11-14T17:32:56.441Z,20.95
2017-11-14T17:35:30.213Z,20.50
2017-11-14T17:38:00.006Z,21.20
2017-11-14T17:40:30.047Z,23.62
2017-11-14T17:43:00.264Z,19.30
2017-11-14T17:45:31.741Z,19.80
2017-11-14T17:48:01.791Z,18.10
2017-11-14T17:50:31.865Z,21.77
2017-11-14T17:53:01.847Z,21.83
2017-11-14T17:55:31.752Z,20.00
2017-11-14T17:58:01.658Z,28.70
2017-11-14T18:00:31.492Z,21.52
2017-11-14T18:03:00.908Z,37.42
2017-11-14T18:05:36.568Z,23.33
2017-11-14T18:08:06.501Z,19.10
2017-11-14T18:10:36.456Z,31.23
2017-11-14T18:13:06.398Z,24.05
2017-11-14T18:15:37.280Z,23.62
2017-11-14T18:18:07.190Z,21.17
2017-11-14T18:20:37.133Z,18.20
2017-11-14T18:23:07.210Z,20.48
2017-11-14T18:25:37.270Z,35.55
2017-11-14T18:28:07.220Z,21.62
2017-11-14T18:30:37.177Z,19.58
2017-11-14T18:33:06.996Z,16.87
2017-11-14T18:35:36.851Z,16.37
2017-11-14T18:38:06.926Z,18.42
2017-11-14T18:40:36.733Z,23.87
2017-11-14T18:43:06.590Z,22.25
2017-11-14T18:45:36.499Z,21.67
2017-11-14T18:48:06.422Z,23.65
2017-11-14T18:50:36.262Z,24.23
2017-11-14T18:53:06.084Z,19.90
2017-11-14T18:55:35.847Z,24.12
2017-11-14T18:58:05.795Z,30.60
2017-11-14T19:00:35.715Z,28.05
2017-11-14T19:03:06.131Z,21.30
2017-11-14T19:05:35.985Z,22.65
2017-11-14T19:08:09.668Z,23.62
2017-11-14T19:10:39.435Z,22.90
2017-11-14T19:13:09.168Z,18.60
2017-11-14T19:15:38.891Z,22.85
2017-11-14T19:18:08.731Z,19.40
2017-11-14T19:20:38.493Z,23.83
2017-11-14T19:23:08.226Z,32.00
2017-11-14T19:25:37.971Z,33.20
2017-11-14T19:28:07.725Z,29.70
2017-11-14T19:30:37.480Z,20.85
2017-11-14T19:33:08.977Z,24.83
2017-11-14T19:35:42.885Z,24.55
2017-11-14T19:38:15.661Z,22.80
2017-11-14T19:40:53.516Z,23.50
2017-11-14T19:43:23.985Z,30.52
2017-11-14T19:53:42.193Z,24.98
2017-11-14T19:56:14.208Z,21.98
2017-11-14T20:09:22.447Z,23.65
2017-11-14T20:14:28.825Z,27.17
2017-11-14T20:16:59.608Z,25.58
2017-11-14T20:24:39.447Z,23.62
2017-11-14T20:27:09.202Z,26.98
2017-11-14T20:29:38.954Z,35.55
2017-11-14T21:38:23.553Z,24.83
2017-11-14T21:40:56.919Z,24.08
2017-11-14T21:43:27.893Z,19.60
2017-11-14T21:46:00.211Z,24.33
2017-11-14T21:48:46.858Z,23.50
2017-11-14T21:51:20.655Z,24.98
2017-11-14T22:00:08.601Z,26.73
2017-11-14T22:15:45.212Z,23.12
2017-11-14T22:21:57.506Z,24.55
2017-11-14T22:58:03.495Z,20.90
2017-11-14T23:03:55.593Z,28.12
2017-11-14T23:09:17.227Z,20.88
2017-11-14T23:17:18.163Z,20.90
